sensor_id;sensor_type;location;lat;lon;timestamp;temperature;humidity
8928;DHT22;4499;48.304;11.902;2022-07-06T00:01:23;15.20;99.90
8928;DHT22;4499;48.304;11.902;2022-07-06T00:03:51;15.20;99.90
8928;DHT22;4499;48.304;11.902;2022-07-06T00:06:23;15.20;99.90
8928;DHT22;4499;48.304;11.902;2022-07-06T00:08:51;15.20;99.90
8928;DHT22;4499;48.304;11.902;2022-07-06T00:11:19;15.20;99.90
8928;DHT22;4499;48.304;11.902;2022-07-06T00:13:48;15.10;99.90
8928;DHT22;4499;48.304;11.902;2022-07-06T00:16:16;15.10;99.90
8928;DHT22;4499;48.304;11.902;2022-07-06T00:18:45;15.00;99.90
8928;DHT22;4499;48.304;11.902;2022-07-06T00:21:13;15.00;99.90
8928;DHT22;4499;48.304;11.902;2022-07-06T00:23:42;15.00;99.90
8928;DHT22;4499;48.304;11.902;2022-07-06T00:26:11;15.00;99.90
8928;DHT22;4499;48.304;11.902;2022-07-06T00:28:39;15.00;99.90
8928;DHT22;4499;48.304;11.902;2022-07-06T00:31:08;14.90;99.90
8928;DHT22;4499;48.304;11.902;2022-07-06T00:33:37;15.00;99.90
8928;DHT22;4499;48.304;11.902;2022-07-06T00:36:05;15.00;99.90
8928;DHT22;4499;48.304;11.902;2022-07-06T00:38:33;15.10;99.90
8928;DHT22;4499;48.304;11.902;2022-07-06T00:41:03;15.10;99.90
8928;DHT22;4499;48.304;11.902;2022-07-06T00:43:50;15.10;99.90
8928;DHT22;4499;48.304;11.902;2022-07-06T00:46:18;15.10;99.90
8928;DHT22;4499;48.304;11.902;2022-07-06T00:48:47;15.10;99.90
8928;DHT22;4499;48.304;11.902;2022-07-06T00:51:15;15.20;99.90
8928;DHT22;4499;48.304;11.902;2022-07-06T00:53:45;15.20;99.90
8928;DHT22;4499;48.304;11.902;2022-07-06T00:56:15;15.30;99.90
8928;DHT22;4499;48.304;11.902;2022-07-06T00:58:43;15.40;99.90
8928;DHT22;4499;48.304;11.902;2022-07-06T01:01:12;15.40;99.90
8928;DHT22;4499;48.304;11.902;2022-07-06T01:03:40;15.50;99.90
8928;DHT22;4499;48.304;11.902;2022-07-06T01:06:10;15.50;99.90
8928;DHT22;4499;48.304;11.902;2022-07-06T01:08:38;15.40;99.90
8928;DHT22;4499;48.304;11.902;2022-07-06T01:11:07;15.40;99.90
8928;DHT22;4499;48.304;11.902;2022-07-06T01:13:36;15.40;99.90
8928;DHT22;4499;48.304;11.902;2022-07-06T01:16:05;15.30;99.90
8928;DHT22;4499;48.304;11.902;2022-07-06T01:18:33;15.30;99.90
8928;DHT22;4499;48.304;11.902;2022-07-06T01:21:08;15.30;99.90
8928;DHT22;4499;48.304;11.902;2022-07-06T01:23:41;15.30;99.90
8928;DHT22;4499;48.304;11.902;2022-07-06T01:26:13;15.30;99.90
8928;DHT22;4499;48.304;11.902;2022-07-06T01:28:42;15.30;99.90
8928;DHT22;4499;48.304;11.902;2022-07-06T01:31:18;15.30;99.90
8928;DHT22;4499;48.304;11.902;2022-07-06T01:33:48;15.30;99.90
8928;DHT22;4499;48.304;11.902;2022-07-06T01:36:18;15.30;99.90
8928;DHT22;4499;48.304;11.902;2022-07-06T01:38:47;15.30;99.90
8928;DHT22;4499;48.304;11.902;2022-07-06T01:41:16;15.30;99.90
8928;DHT22;4499;48.304;11.902;2022-07-06T01:43:45;15.30;99.90
8928;DHT22;4499;48.304;11.902;2022-07-06T01:46:13;15.20;99.90
8928;DHT22;4499;48.304;11.902;2022-07-06T01:48:41;15.20;99.90
8928;DHT22;4499;48.304;11.902;2022-07-06T01:51:10;15.10;99.90
8928;DHT22;4499;48.304;11.902;2022-07-06T01:53:40;15.10;99.90
8928;DHT22;4499;48.304;11.902;2022-07-06T01:56:09;15.10;99.90
8928;DHT22;4499;48.304;11.902;2022-07-06T01:58:38;15.00;99.90
8928;DHT22;4499;48.304;11.902;2022-07-06T02:01:07;15.00;99.90
8928;DHT22;4499;48.304;11.902;2022-07-06T02:03:36;14.90;99.90
8928;DHT22;4499;48.304;11.902;2022-07-06T02:06:06;14.90;99.90
8928;DHT22;4499;48.304;11.902;2022-07-06T02:08:34;14.80;99.90
8928;DHT22;4499;48.304;11.902;2022-07-06T02:11:05;14.80;99.90
8928;DHT22;4499;48.304;11.902;2022-07-06T02:13:33;14.80;99.90
8928;DHT22;4499;48.304;11.902;2022-07-06T02:16:03;14.70;99.90
8928;DHT22;4499;48.304;11.902;2022-07-06T02:18:31;14.70;99.90
8928;DHT22;4499;48.304;11.902;2022-07-06T02:21:00;14.70;99.90
8928;DHT22;4499;48.304;11.902;2022-07-06T02:23:28;14.60;99.90
8928;DHT22;4499;48.304;11.902;2022-07-06T02:25:56;14.60;99.90
8928;DHT22;4499;48.304;11.902;2022-07-06T02:28:26;14.60;99.90
8928;DHT22;4499;48.304;11.902;2022-07-06T02:30:54;14.60;99.90
8928;DHT22;4499;48.304;11.902;2022-07-06T02:33:22;14.60;99.90
8928;DHT22;4499;48.304;11.902;2022-07-06T02:35:50;14.50;99.90
8928;DHT22;4499;48.304;11.902;2022-07-06T02:38:18;14.50;99.90
8928;DHT22;4499;48.304;11.902;2022-07-06T02:40:47;14.50;99.90
8928;DHT22;4499;48.304;11.902;2022-07-06T02:43:15;14.50;99.90
8928;DHT22;4499;48.304;11.902;2022-07-06T02:45:45;14.50;99.90
8928;DHT22;4499;48.304;11.902;2022-07-06T02:48:13;14.50;99.90
8928;DHT22;4499;48.304;11.902;2022-07-06T02:50:41;14.50;99.90
8928;DHT22;4499;48.304;11.902;2022-07-06T02:53:10;14.50;99.90
8928;DHT22;4499;48.304;11.902;2022-07-06T02:55:38;14.50;99.90
8928;DHT22;4499;48.304;11.902;2022-07-06T02:58:06;14.50;99.90
8928;DHT22;4499;48.304;11.902;2022-07-06T03:00:34;14.50;99.90
8928;DHT22;4499;48.304;11.902;2022-07-06T03:03:03;14.50;99.90
8928;DHT22;4499;48.304;11.902;2022-07-06T03:05:32;14.40;99.90
8928;DHT22;4499;48.304;11.902;2022-07-06T03:08:00;14.40;99.90
8928;DHT22;4499;48.304;11.902;2022-07-06T03:10:28;14.40;99.90
8928;DHT22;4499;48.304;11.902;2022-07-06T03:12:56;14.30;99.90
8928;DHT22;4499;48.304;11.902;2022-07-06T03:15:25;14.30;99.90
8928;DHT22;4499;48.304;11.902;2022-07-06T03:17:53;14.20;99.90
8928;DHT22;4499;48.304;11.902;2022-07-06T03:20:23;14.20;99.90
8928;DHT22;4499;48.304;11.902;2022-07-06T03:22:51;14.10;99.90
8928;DHT22;4499;48.304;11.902;2022-07-06T03:25:19;14.10;99.90
8928;DHT22;4499;48.304;11.902;2022-07-06T03:27:47;14.10;99.90
8928;DHT22;4499;48.304;11.902;2022-07-06T03:30:15;14.00;99.90
8928;DHT22;4499;48.304;11.902;2022-07-06T03:32:43;14.00;99.90
8928;DHT22;4499;48.304;11.902;2022-07-06T03:35:11;14.00;99.90
8928;DHT22;4499;48.304;11.902;2022-07-06T03:37:41;14.00;99.90
8928;DHT22;4499;48.304;11.902;2022-07-06T03:40:10;14.00;99.90
8928;DHT22;4499;48.304;11.902;2022-07-06T03:42:39;13.90;99.90
8928;DHT22;4499;48.304;11.902;2022-07-06T03:45:09;14.00;99.90
8928;DHT22;4499;48.304;11.902;2022-07-06T03:47:37;14.00;99.90
8928;DHT22;4499;48.304;11.902;2022-07-06T03:50:06;14.10;99.90
8928;DHT22;4499;48.304;11.902;2022-07-06T03:52:35;14.00;99.90
8928;DHT22;4499;48.304;11.902;2022-07-06T03:55:09;14.00;99.90
8928;DHT22;4499;48.304;11.902;2022-07-06T03:57:39;14.10;99.90
8928;DHT22;4499;48.304;11.902;2022-07-06T04:00:08;14.10;99.90
8928;DHT22;4499;48.304;11.902;2022-07-06T04:02:36;14.10;99.90
8928;DHT22;4499;48.304;11.902;2022-07-06T04:05:05;14.10;99.90
8928;DHT22;4499;48.304;11.902;2022-07-06T04:07:34;14.20;99.90
8928;DHT22;4499;48.304;11.902;2022-07-06T04:10:02;14.20;99.90
8928;DHT22;4499;48.304;11.902;2022-07-06T04:12:32;14.20;99.90
8928;DHT22;4499;48.304;11.902;2022-07-06T04:15:00;14.20;99.90
8928;DHT22;4499;48.304;11.902;2022-07-06T04:17:28;14.30;99.90
8928;DHT22;4499;48.304;11.902;2022-07-06T04:20:14;14.40;99.90
8928;DHT22;4499;48.304;11.902;2022-07-06T04:22:42;14.40;99.90
8928;DHT22;4499;48.304;11.902;2022-07-06T04:25:10;14.50;99.90
8928;DHT22;4499;48.304;11.902;2022-07-06T04:27:40;14.50;99.90
8928;DHT22;4499;48.304;11.902;2022-07-06T04:30:09;14.60;99.90
8928;DHT22;4499;48.304;11.902;2022-07-06T04:32:38;14.50;99.90
8928;DHT22;4499;48.304;11.902;2022-07-06T04:35:07;14.60;99.90
8928;DHT22;4499;48.304;11.902;2022-07-06T04:37:35;14.70;99.90
8928;DHT22;4499;48.304;11.902;2022-07-06T04:40:05;14.60;99.90
8928;DHT22;4499;48.304;11.902;2022-07-06T04:42:33;14.70;99.90
8928;DHT22;4499;48.304;11.902;2022-07-06T04:45:03;14.70;99.90
8928;DHT22;4499;48.304;11.902;2022-07-06T04:47:31;14.80;99.90
8928;DHT22;4499;48.304;11.902;2022-07-06T04:50:00;14.90;99.90
8928;DHT22;4499;48.304;11.902;2022-07-06T04:52:28;14.90;99.90
8928;DHT22;4499;48.304;11.902;2022-07-06T04:54:56;14.90;99.90
8928;DHT22;4499;48.304;11.902;2022-07-06T04:57:25;15.00;99.90
8928;DHT22;4499;48.304;11.902;2022-07-06T04:59:56;15.10;99.90
8928;DHT22;4499;48.304;11.902;2022-07-06T05:02:25;15.20;99.90
8928;DHT22;4499;48.304;11.902;2022-07-06T05:04:53;15.60;99.90
8928;DHT22;4499;48.304;11.902;2022-07-06T05:07:21;15.80;99.90
8928;DHT22;4499;48.304;11.902;2022-07-06T05:09:55;16.00;99.90
8928;DHT22;4499;48.304;11.902;2022-07-06T05:12:23;16.20;99.90
8928;DHT22;4499;48.304;11.902;2022-07-06T05:14:51;16.40;99.90
8928;DHT22;4499;48.304;11.902;2022-07-06T05:17:19;16.50;99.90
8928;DHT22;4499;48.304;11.902;2022-07-06T05:19:56;16.50;99.90
8928;DHT22;4499;48.304;11.902;2022-07-06T05:22:24;16.70;99.90
8928;DHT22;4499;48.304;11.902;2022-07-06T05:24:54;16.80;99.90
8928;DHT22;4499;48.304;11.902;2022-07-06T05:27:22;17.00;99.90
8928;DHT22;4499;48.304;11.902;2022-07-06T05:29:51;17.10;99.90
8928;DHT22;4499;48.304;11.902;2022-07-06T05:32:19;17.30;99.90
8928;DHT22;4499;48.304;11.902;2022-07-06T05:34:47;17.30;99.90
8928;DHT22;4499;48.304;11.902;2022-07-06T05:37:17;17.40;99.90
8928;DHT22;4499;48.304;11.902;2022-07-06T05:39:45;17.60;99.90
8928;DHT22;4499;48.304;11.902;2022-07-06T05:42:16;17.80;99.90
8928;DHT22;4499;48.304;11.902;2022-07-06T05:44:44;17.80;99.90
8928;DHT22;4499;48.304;11.902;2022-07-06T05:47:13;17.80;99.90
8928;DHT22;4499;48.304;11.902;2022-07-06T05:50:07;17.80;99.90
8928;DHT22;4499;48.304;11.902;2022-07-06T05:52:44;18.00;99.90
8928;DHT22;4499;48.304;11.902;2022-07-06T05:55:22;18.40;99.90
8928;DHT22;4499;48.304;11.902;2022-07-06T05:57:50;18.80;99.90
8928;DHT22;4499;48.304;11.902;2022-07-06T06:00:21;19.60;99.90
8928;DHT22;4499;48.304;11.902;2022-07-06T06:02:49;20.00;99.90
8928;DHT22;4499;48.304;11.902;2022-07-06T06:05:18;20.10;99.90
8928;DHT22;4499;48.304;11.902;2022-07-06T06:07:52;20.40;99.90
8928;DHT22;4499;48.304;11.902;2022-07-06T06:10:21;21.50;99.90
8928;DHT22;4499;48.304;11.902;2022-07-06T06:12:50;21.90;99.90
8928;DHT22;4499;48.304;11.902;2022-07-06T06:15:18;22.80;99.90
8928;DHT22;4499;48.304;11.902;2022-07-06T06:17:47;23.50;99.90
8928;DHT22;4499;48.304;11.902;2022-07-06T06:20:15;23.90;99.90
8928;DHT22;4499;48.304;11.902;2022-07-06T06:22:45;23.80;99.90
8928;DHT22;4499;48.304;11.902;2022-07-06T06:25:15;23.50;99.90
8928;DHT22;4499;48.304;11.902;2022-07-06T06:27:44;23.00;99.90
8928;DHT22;4499;48.304;11.902;2022-07-06T06:30:13;22.80;99.90
8928;DHT22;4499;48.304;11.902;2022-07-06T06:32:41;23.10;99.90
8928;DHT22;4499;48.304;11.902;2022-07-06T06:35:09;23.40;99.90
8928;DHT22;4499;48.304;11.902;2022-07-06T06:37:37;24.10;99.90
8928;DHT22;4499;48.304;11.902;2022-07-06T06:40:07;24.60;99.90
8928;DHT22;4499;48.304;11.902;2022-07-06T06:42:37;25.50;99.90
8928;DHT22;4499;48.304;11.902;2022-07-06T06:45:06;26.50;99.90
8928;DHT22;4499;48.304;11.902;2022-07-06T06:47:38;26.90;98.80
8928;DHT22;4499;48.304;11.902;2022-07-06T06:50:07;27.20;98.30
8928;DHT22;4499;48.304;11.902;2022-07-06T06:52:35;27.70;95.40
8928;DHT22;4499;48.304;11.902;2022-07-06T06:55:07;28.20;93.30
8928;DHT22;4499;48.304;11.902;2022-07-06T06:57:37;28.30;93.60
8928;DHT22;4499;48.304;11.902;2022-07-06T07:00:06;28.50;92.30
8928;DHT22;4499;48.304;11.902;2022-07-06T07:02:35;28.30;92.10
8928;DHT22;4499;48.304;11.902;2022-07-06T07:05:04;28.60;91.50
8928;DHT22;4499;48.304;11.902;2022-07-06T07:07:32;28.80;90.20
8928;DHT22;4499;48.304;11.902;2022-07-06T07:10:00;29.20;89.70
8928;DHT22;4499;48.304;11.902;2022-07-06T07:12:30;29.50;86.40
8928;DHT22;4499;48.304;11.902;2022-07-06T07:15:01;29.80;86.50
8928;DHT22;4499;48.304;11.902;2022-07-06T07:17:33;30.70;86.20
8928;DHT22;4499;48.304;11.902;2022-07-06T07:20:01;30.50;82.60
8928;DHT22;4499;48.304;11.902;2022-07-06T07:22:29;31.00;84.80
8928;DHT22;4499;48.304;11.902;2022-07-06T07:24:58;30.20;83.00
8928;DHT22;4499;48.304;11.902;2022-07-06T07:27:26;30.10;83.20
8928;DHT22;4499;48.304;11.902;2022-07-06T07:29:55;31.00;82.40
8928;DHT22;4499;48.304;11.902;2022-07-06T07:32:24;31.20;78.90
8928;DHT22;4499;48.304;11.902;2022-07-06T07:34:52;31.00;79.10
8928;DHT22;4499;48.304;11.902;2022-07-06T07:37:21;30.50;76.00
8928;DHT22;4499;48.304;11.902;2022-07-06T07:39:49;30.20;79.70
8928;DHT22;4499;48.304;11.902;2022-07-06T07:42:18;29.80;81.20
8928;DHT22;4499;48.304;11.902;2022-07-06T07:44:46;29.80;82.40
8928;DHT22;4499;48.304;11.902;2022-07-06T07:47:14;30.50;79.20
8928;DHT22;4499;48.304;11.902;2022-07-06T07:49:45;29.00;81.30
8928;DHT22;4499;48.304;11.902;2022-07-06T07:52:13;28.70;84.30
8928;DHT22;4499;48.304;11.902;2022-07-06T07:54:41;29.60;79.80
8928;DHT22;4499;48.304;11.902;2022-07-06T07:57:19;30.50;80.30
8928;DHT22;4499;48.304;11.902;2022-07-06T07:59:48;30.50;76.80
8928;DHT22;4499;48.304;11.902;2022-07-06T08:02:16;31.60;79.90
8928;DHT22;4499;48.304;11.902;2022-07-06T08:04:45;31.80;78.80
8928;DHT22;4499;48.304;11.902;2022-07-06T08:07:14;31.70;76.50
8928;DHT22;4499;48.304;11.902;2022-07-06T08:09:42;31.50;76.60
8928;DHT22;4499;48.304;11.902;2022-07-06T08:12:10;30.70;75.90
8928;DHT22;4499;48.304;11.902;2022-07-06T08:14:38;30.20;78.00
8928;DHT22;4499;48.304;11.902;2022-07-06T08:17:07;30.80;80.70
8928;DHT22;4499;48.304;11.902;2022-07-06T08:19:35;30.80;76.80
8928;DHT22;4499;48.304;11.902;2022-07-06T08:22:04;29.50;79.90
8928;DHT22;4499;48.304;11.902;2022-07-06T08:24:34;29.00;83.20
8928;DHT22;4499;48.304;11.902;2022-07-06T08:27:03;29.30;82.00
8928;DHT22;4499;48.304;11.902;2022-07-06T08:29:31;29.40;79.30
8928;DHT22;4499;48.304;11.902;2022-07-06T08:31:59;29.80;84.30
8928;DHT22;4499;48.304;11.902;2022-07-06T08:34:41;31.10;77.60
8928;DHT22;4499;48.304;11.902;2022-07-06T08:37:13;31.00;76.90
8928;DHT22;4499;48.304;11.902;2022-07-06T08:39:42;30.70;77.00
8928;DHT22;4499;48.304;11.902;2022-07-06T08:42:10;30.30;75.20
8928;DHT22;4499;48.304;11.902;2022-07-06T08:44:39;29.60;77.50
8928;DHT22;4499;48.304;11.902;2022-07-06T08:47:08;29.50;77.40
8928;DHT22;4499;48.304;11.902;2022-07-06T08:49:38;29.40;79.30
8928;DHT22;4499;48.304;11.902;2022-07-06T08:52:07;29.80;78.10
8928;DHT22;4499;48.304;11.902;2022-07-06T08:54:38;29.80;80.10
8928;DHT22;4499;48.304;11.902;2022-07-06T08:57:06;30.10;77.60
8928;DHT22;4499;48.304;11.902;2022-07-06T08:59:34;30.40;75.10
8928;DHT22;4499;48.304;11.902;2022-07-06T09:02:03;30.60;75.00
8928;DHT22;4499;48.304;11.902;2022-07-06T09:04:33;30.50;76.70
8928;DHT22;4499;48.304;11.902;2022-07-06T09:07:03;30.90;76.10
8928;DHT22;4499;48.304;11.902;2022-07-06T09:09:31;31.00;76.70
8928;DHT22;4499;48.304;11.902;2022-07-06T09:12:01;31.80;75.50
8928;DHT22;4499;48.304;11.902;2022-07-06T09:14:30;31.30;73.50
8928;DHT22;4499;48.304;11.902;2022-07-06T09:17:03;32.00;75.20
8928;DHT22;4499;48.304;11.902;2022-07-06T09:19:32;32.10;69.50
8928;DHT22;4499;48.304;11.902;2022-07-06T09:22:01;32.40;66.50
8928;DHT22;4499;48.304;11.902;2022-07-06T09:24:29;31.70;74.10
8928;DHT22;4499;48.304;11.902;2022-07-06T09:27:01;31.50;73.80
8928;DHT22;4499;48.304;11.902;2022-07-06T09:29:32;30.50;74.70
8928;DHT22;4499;48.304;11.902;2022-07-06T09:32:02;30.20;76.70
8928;DHT22;4499;48.304;11.902;2022-07-06T09:34:42;30.30;73.30
8928;DHT22;4499;48.304;11.902;2022-07-06T09:37:14;29.50;76.20
8928;DHT22;4499;48.304;11.902;2022-07-06T09:39:43;29.80;76.50
8928;DHT22;4499;48.304;11.902;2022-07-06T09:42:14;30.50;73.00
8928;DHT22;4499;48.304;11.902;2022-07-06T09:44:42;31.10;74.40
8928;DHT22;4499;48.304;11.902;2022-07-06T09:47:11;31.30;73.10
8928;DHT22;4499;48.304;11.902;2022-07-06T09:49:41;31.50;74.60
8928;DHT22;4499;48.304;11.902;2022-07-06T09:52:11;31.70;74.60
8928;DHT22;4499;48.304;11.902;2022-07-06T09:54:40;31.90;68.60
8928;DHT22;4499;48.304;11.902;2022-07-06T09:57:09;32.40;67.60
8928;DHT22;4499;48.304;11.902;2022-07-06T09:59:39;32.60;70.00
8928;DHT22;4499;48.304;11.902;2022-07-06T10:02:07;32.20;69.50
8928;DHT22;4499;48.304;11.902;2022-07-06T10:04:36;31.00;69.40
8928;DHT22;4499;48.304;11.902;2022-07-06T10:07:06;31.30;73.60
8928;DHT22;4499;48.304;11.902;2022-07-06T10:09:35;31.30;72.20
8928;DHT22;4499;48.304;11.902;2022-07-06T10:12:05;31.90;72.00
8928;DHT22;4499;48.304;11.902;2022-07-06T10:14:39;32.40;72.00
8928;DHT22;4499;48.304;11.902;2022-07-06T10:17:17;31.80;67.30
8928;DHT22;4499;48.304;11.902;2022-07-06T10:19:47;32.40;69.80
8928;DHT22;4499;48.304;11.902;2022-07-06T10:22:16;32.70;67.60
8928;DHT22;4499;48.304;11.902;2022-07-06T10:24:47;32.00;69.00
8928;DHT22;4499;48.304;11.902;2022-07-06T10:27:15;31.70;70.30
8928;DHT22;4499;48.304;11.902;2022-07-06T10:29:45;31.90;69.70
8928;DHT22;4499;48.304;11.902;2022-07-06T10:32:17;32.30;66.20
8928;DHT22;4499;48.304;11.902;2022-07-06T10:34:46;32.80;66.10
8928;DHT22;4499;48.304;11.902;2022-07-06T10:37:22;33.80;61.80
8928;DHT22;4499;48.304;11.902;2022-07-06T10:39:52;33.20;62.80
8928;DHT22;4499;48.304;11.902;2022-07-06T10:42:42;33.10;63.60
8928;DHT22;4499;48.304;11.902;2022-07-06T10:45:16;32.50;67.60
8928;DHT22;4499;48.304;11.902;2022-07-06T10:47:46;32.60;64.60
8928;DHT22;4499;48.304;11.902;2022-07-06T10:50:15;32.80;65.00
8928;DHT22;4499;48.304;11.902;2022-07-06T10:52:50;31.80;64.30
8928;DHT22;4499;48.304;11.902;2022-07-06T10:55:37;31.30;66.70
8928;DHT22;4499;48.304;11.902;2022-07-06T10:58:05;31.30;63.80
8928;DHT22;4499;48.304;11.902;2022-07-06T11:00:52;31.60;64.30
8928;DHT22;4499;48.304;11.902;2022-07-06T11:03:31;31.90;66.10
8928;DHT22;4499;48.304;11.902;2022-07-06T11:06:01;31.90;67.10
8928;DHT22;4499;48.304;11.902;2022-07-06T11:08:49;31.10;64.40
8928;DHT22;4499;48.304;11.902;2022-07-06T11:11:19;30.00;67.00
8928;DHT22;4499;48.304;11.902;2022-07-06T11:13:49;30.10;71.10
8928;DHT22;4499;48.304;11.902;2022-07-06T11:16:20;30.70;73.90
8928;DHT22;4499;48.304;11.902;2022-07-06T11:18:58;31.30;65.30
8928;DHT22;4499;48.304;11.902;2022-07-06T11:21:38;31.70;65.60
8928;DHT22;4499;48.304;11.902;2022-07-06T11:24:09;32.00;66.10
8928;DHT22;4499;48.304;11.902;2022-07-06T11:26:39;32.00;62.40
8928;DHT22;4499;48.304;11.902;2022-07-06T11:29:10;31.40;67.00
8928;DHT22;4499;48.304;11.902;2022-07-06T11:31:41;31.50;63.80
8928;DHT22;4499;48.304;11.902;2022-07-06T11:34:12;31.00;66.90
8928;DHT22;4499;48.304;11.902;2022-07-06T11:36:41;30.60;62.70
8928;DHT22;4499;48.304;11.902;2022-07-06T11:39:13;30.80;68.80
8928;DHT22;4499;48.304;11.902;2022-07-06T11:41:41;30.30;70.20
8928;DHT22;4499;48.304;11.902;2022-07-06T11:44:16;30.50;70.10
8928;DHT22;4499;48.304;11.902;2022-07-06T11:46:46;30.00;67.30
8928;DHT22;4499;48.304;11.902;2022-07-06T11:49:15;29.30;68.20
8928;DHT22;4499;48.304;11.902;2022-07-06T11:51:45;28.90;70.50
8928;DHT22;4499;48.304;11.902;2022-07-06T11:54:14;28.00;68.60
8928;DHT22;4499;48.304;11.902;2022-07-06T11:56:47;27.40;71.10
8928;DHT22;4499;48.304;11.902;2022-07-06T11:59:21;27.60;72.70
8928;DHT22;4499;48.304;11.902;2022-07-06T12:01:59;28.00;71.40
8928;DHT22;4499;48.304;11.902;2022-07-06T12:04:28;28.50;73.20
8928;DHT22;4499;48.304;11.902;2022-07-06T12:07:00;28.30;71.10
8928;DHT22;4499;48.304;11.902;2022-07-06T12:09:30;27.60;69.30
8928;DHT22;4499;48.304;11.902;2022-07-06T12:11:59;26.80;74.80
8928;DHT22;4499;48.304;11.902;2022-07-06T12:14:30;26.70;78.50
8928;DHT22;4499;48.304;11.902;2022-07-06T12:17:05;27.00;78.30
8928;DHT22;4499;48.304;11.902;2022-07-06T12:19:34;27.30;75.40
8928;DHT22;4499;48.304;11.902;2022-07-06T12:22:04;26.90;73.50
8928;DHT22;4499;48.304;11.902;2022-07-06T12:24:33;26.60;74.70
8928;DHT22;4499;48.304;11.902;2022-07-06T12:27:10;26.40;73.40
8928;DHT22;4499;48.304;11.902;2022-07-06T12:29:39;26.50;74.90
8928;DHT22;4499;48.304;11.902;2022-07-06T12:32:14;26.70;74.50
8928;DHT22;4499;48.304;11.902;2022-07-06T12:34:42;26.10;76.40
8928;DHT22;4499;48.304;11.902;2022-07-06T12:37:12;26.30;76.60
8928;DHT22;4499;48.304;11.902;2022-07-06T12:39:43;26.90;77.30
8928;DHT22;4499;48.304;11.902;2022-07-06T12:42:13;27.30;77.10
8928;DHT22;4499;48.304;11.902;2022-07-06T12:44:46;27.50;74.30
8928;DHT22;4499;48.304;11.902;2022-07-06T12:47:19;27.60;74.30
8928;DHT22;4499;48.304;11.902;2022-07-06T12:50:03;27.60;71.90
8928;DHT22;4499;48.304;11.902;2022-07-06T12:52:32;27.90;72.10
8928;DHT22;4499;48.304;11.902;2022-07-06T12:55:01;27.90;73.80
8928;DHT22;4499;48.304;11.902;2022-07-06T12:57:43;27.90;66.50
8928;DHT22;4499;48.304;11.902;2022-07-06T13:00:12;27.80;71.20
8928;DHT22;4499;48.304;11.902;2022-07-06T13:02:44;27.60;68.60
8928;DHT22;4499;48.304;11.902;2022-07-06T13:05:33;27.60;72.10
8928;DHT22;4499;48.304;11.902;2022-07-06T13:08:02;27.80;69.20
8928;DHT22;4499;48.304;11.902;2022-07-06T13:10:31;27.90;70.10
8928;DHT22;4499;48.304;11.902;2022-07-06T13:13:00;28.00;69.60
8928;DHT22;4499;48.304;11.902;2022-07-06T13:15:29;28.00;65.90
8928;DHT22;4499;48.304;11.902;2022-07-06T13:17:58;28.00;69.00
8928;DHT22;4499;48.304;11.902;2022-07-06T13:20:27;28.00;70.00
8928;DHT22;4499;48.304;11.902;2022-07-06T13:22:59;27.70;69.40
8928;DHT22;4499;48.304;11.902;2022-07-06T13:25:27;27.40;68.60
8928;DHT22;4499;48.304;11.902;2022-07-06T13:27:56;27.60;71.80
8928;DHT22;4499;48.304;11.902;2022-07-06T13:30:24;27.70;69.90
8928;DHT22;4499;48.304;11.902;2022-07-06T13:32:52;27.80;71.70
8928;DHT22;4499;48.304;11.902;2022-07-06T13:35:23;28.00;68.10
8928;DHT22;4499;48.304;11.902;2022-07-06T13:37:51;28.00;69.00
8928;DHT22;4499;48.304;11.902;2022-07-06T13:40:19;28.00;68.60
8928;DHT22;4499;48.304;11.902;2022-07-06T13:42:47;28.10;68.50
8928;DHT22;4499;48.304;11.902;2022-07-06T13:45:16;28.10;68.40
8928;DHT22;4499;48.304;11.902;2022-07-06T13:47:45;28.00;67.70
8928;DHT22;4499;48.304;11.902;2022-07-06T13:50:13;28.00;69.40
8928;DHT22;4499;48.304;11.902;2022-07-06T13:52:43;27.90;71.60
8928;DHT22;4499;48.304;11.902;2022-07-06T13:55:11;27.90;69.40
8928;DHT22;4499;48.304;11.902;2022-07-06T13:57:39;27.90;70.10
8928;DHT22;4499;48.304;11.902;2022-07-06T14:00:10;27.80;67.40
8928;DHT22;4499;48.304;11.902;2022-07-06T14:02:38;27.80;69.50
8928;DHT22;4499;48.304;11.902;2022-07-06T14:05:07;27.80;70.40
8928;DHT22;4499;48.304;11.902;2022-07-06T14:07:36;27.30;69.40
8928;DHT22;4499;48.304;11.902;2022-07-06T14:10:06;27.20;69.90
8928;DHT22;4499;48.304;11.902;2022-07-06T14:12:35;27.20;71.20
8928;DHT22;4499;48.304;11.902;2022-07-06T14:15:04;27.40;72.10
8928;DHT22;4499;48.304;11.902;2022-07-06T14:17:33;27.40;72.00
8928;DHT22;4499;48.304;11.902;2022-07-06T14:20:01;27.00;70.60
8928;DHT22;4499;48.304;11.902;2022-07-06T14:22:29;26.70;70.60
8928;DHT22;4499;48.304;11.902;2022-07-06T14:24:58;26.60;70.40
8928;DHT22;4499;48.304;11.902;2022-07-06T14:27:27;26.40;72.80
8928;DHT22;4499;48.304;11.902;2022-07-06T14:29:56;26.10;70.80
8928;DHT22;4499;48.304;11.902;2022-07-06T14:32:24;25.60;71.70
8928;DHT22;4499;48.304;11.902;2022-07-06T14:34:53;25.30;72.40
8928;DHT22;4499;48.304;11.902;2022-07-06T14:37:22;25.20;74.20
8928;DHT22;4499;48.304;11.902;2022-07-06T14:39:50;25.10;75.70
8928;DHT22;4499;48.304;11.902;2022-07-06T14:42:19;25.30;76.80
8928;DHT22;4499;48.304;11.902;2022-07-06T14:44:49;25.40;75.40
8928;DHT22;4499;48.304;11.902;2022-07-06T14:47:18;25.50;74.40
8928;DHT22;4499;48.304;11.902;2022-07-06T14:49:46;25.80;73.60
8928;DHT22;4499;48.304;11.902;2022-07-06T14:52:15;26.00;75.70
8928;DHT22;4499;48.304;11.902;2022-07-06T14:54:44;26.00;72.60
8928;DHT22;4499;48.304;11.902;2022-07-06T14:57:12;26.00;72.80
8928;DHT22;4499;48.304;11.902;2022-07-06T14:59:41;26.20;72.20
8928;DHT22;4499;48.304;11.902;2022-07-06T15:02:10;26.40;74.80
8928;DHT22;4499;48.304;11.902;2022-07-06T15:04:39;26.60;72.00
8928;DHT22;4499;48.304;11.902;2022-07-06T15:07:07;26.60;75.00
8928;DHT22;4499;48.304;11.902;2022-07-06T15:09:35;26.40;70.70
8928;DHT22;4499;48.304;11.902;2022-07-06T15:12:05;26.10;71.70
8928;DHT22;4499;48.304;11.902;2022-07-06T15:14:34;26.00;75.60
8928;DHT22;4499;48.304;11.902;2022-07-06T15:17:03;25.90;74.50
8928;DHT22;4499;48.304;11.902;2022-07-06T15:19:33;26.00;73.50
8928;DHT22;4499;48.304;11.902;2022-07-06T15:22:02;25.90;76.80
8928;DHT22;4499;48.304;11.902;2022-07-06T15:24:30;25.90;73.60
8928;DHT22;4499;48.304;11.902;2022-07-06T15:26:59;25.90;73.40
8928;DHT22;4499;48.304;11.902;2022-07-06T15:29:27;26.10;74.90
8928;DHT22;4499;48.304;11.902;2022-07-06T15:31:55;25.90;75.60
8928;DHT22;4499;48.304;11.902;2022-07-06T15:34:24;25.90;72.70
8928;DHT22;4499;48.304;11.902;2022-07-06T15:36:53;25.60;73.70
8928;DHT22;4499;48.304;11.902;2022-07-06T15:39:22;25.50;72.60
8928;DHT22;4499;48.304;11.902;2022-07-06T15:41:50;25.40;73.90
8928;DHT22;4499;48.304;11.902;2022-07-06T15:44:19;25.40;75.20
8928;DHT22;4499;48.304;11.902;2022-07-06T15:46:47;25.00;76.00
8928;DHT22;4499;48.304;11.902;2022-07-06T15:49:15;24.90;72.90
8928;DHT22;4499;48.304;11.902;2022-07-06T15:51:45;25.00;75.40
8928;DHT22;4499;48.304;11.902;2022-07-06T15:54:16;25.10;77.10
8928;DHT22;4499;48.304;11.902;2022-07-06T15:56:44;25.20;76.40
8928;DHT22;4499;48.304;11.902;2022-07-06T15:59:12;25.20;74.40
8928;DHT22;4499;48.304;11.902;2022-07-06T16:01:40;25.10;73.70